Accueil
METAR-TAF:

METAR-TAF

Aéroports :

Vanua Lava, Vanuatu

latitude: 13-51-06S, longitude: 167-32-13E, altitude: 2 m

Observation

Le bulletin a été fait il y a 1 heure et 0 minutes, à 06:00 UTC
Vent 3 kt de direction variable
Température 27°C
Humidité 89%
Pression 1013 hPa
Visibilité 10 km ou plus
Nuages épars à une hauteur de 2000 ft
Nuages fragmentés à une hauteur de 4000 ft

METAR: NVSC 270600Z VRB03KT 9999 SCT020 BKN040 27/25 Q1013 RMK NIL

Heure: 18:00 (07:00 UTC)

Prévision

Le bulletin a été fait il y a 2 heures et 30 minutes, à 04:30 UTC
Prévision valable du 27 à 06 UTC au 28 à 06 UTC
Vent 12 kt de sud-est
Visibilité: 9000 m
Nuages épars à une hauteur de 2000 ft
Nuages fragmentés à une hauteur de 1800 ft
faibles averses de pluie
Evoluant progressivement
du 27 à 07 UTC au 27 à 09 UTC
Vent 5 kt de sud-est

TAF: NVSC 270430Z 2706/2806 13012KT 9999 SCT020 INTER 2706/2712 9000 -SHRA BKN018 BECMG 2707/2709 13005KT

Observations et prévisions météorologiques de plus de 4000 aéroports (messages METAR et TAF).

Les stations disponibles sont représentées par des disques jaunes et rouges sur la carte.

Passer la souris dessus pour voir le nom de la station.

Cliquer dessus pour voir les observations et prévisions météorologiques.

Pour changer de carte: cliquez sur les boutons verts avec une croix noire pour zoomer, sur le bouton vert avec un tiret pour effectuer un zoom arrière, ou sur les flèches vertes pour les cartes adjacentes.


METAR-TAF: